Terminal Aerodrome Forecast
Issued by NWS

Home | Current Version | Previous Version | Text Only | Print | Product List | Glossary On
Versions: 1 2 3 4 5 6 7 8 9 10 11 12 13 14 15 16 17 18 19 20 21 22 23 24
000
FTUS46 KMTR 030538
TAFSFO
TAF
KSFO 030538Z 0306/0412 31007KT P6SM FEW002 BKN150 BKN190
     FM030900 28007KT P6SM FEW003 BKN200
     FM031100 28007KT P6SM OVC007
     FM031630 30008KT P6SM SCT200
     FM032100 29016KT P6SM SCT200
     FM040500 29011KT P6SM FEW015 SCT200=

USA.gov is the U.S. government's official web portal to all federal, state and local government web resources and services.